»·PEaware :: N4732Q KAVX-KSAN

N4732Q :: KAVX-KSAN

FLIGHT INFORMATION

Flight Status: Arrived
Operator: Privately registered:
United States
More flights under this callsign
Pilot: Anonymous 16516 (16516)
Aircraft: CESSNA 172 SKYHAWK
(C172)
More flights by this aircraft type
Origin: KAVX Catalina
United States
Destination: KSAN San Diego Intl-Lindbergh
United States
More flights between these airports :: More routes between these airports
Route: +SXC V208 OCN V23 MZB
File this flight plan on PilotEdge
Remarks: Sample flight plan
Altitude:
(Current/Filed)
5,000ft
Speed:
(Current/Filed)
120kts
Departed: 08-Oct-17 09:12 AM
Arrived: 08-Oct-17 10:14 AM
Distance/Time
Traveled:
74nm/1:02
Distance/Time
To Go:
Arrived

Flight Plot

Page will automatically refresh every two minutes.


Map Options




Map Legend


Flown Route
Filed Route
Departure Airport
Arrival Airport
Navaid (VOR, NDB)
Fix

Horizontal Profiles

Position Reports

Time Latitude Longitude Heading Altitude Ground
Speed
08-Oct-17 08:33 33.403242 -118.415092 325 1546ft 0kts
08-Oct-17 08:34 33.403242 -118.415092 325 1546ft 0kts
08-Oct-17 08:36 33.403242 -118.415092 325 1546ft 0kts
08-Oct-17 08:37 33.403242 -118.415092 325 1546ft 0kts
08-Oct-17 08:38 33.403242 -118.415092 325 1546ft 0kts
08-Oct-17 08:39 33.403242 -118.415092 325 1546ft 0kts
08-Oct-17 08:40 33.403242 -118.415092 325 1546ft 0kts
08-Oct-17 08:41 33.403242 -118.415092 325 1546ft 0kts
08-Oct-17 08:41 33.403242 -118.415092 325 1546ft 0kts
08-Oct-17 08:43 33.403242 -118.415092 325 1546ft 0kts
08-Oct-17 08:44 33.403242 -118.415092 325 1546ft 0kts
08-Oct-17 08:45 33.403242 -118.415092 325 1546ft 0kts
08-Oct-17 08:45 33.403242 -118.415092 325 1546ft 0kts
08-Oct-17 08:47 33.403242 -118.415092 325 1546ft 0kts
08-Oct-17 08:47 33.403242 -118.415092 325 1546ft 0kts
08-Oct-17 08:48 33.403242 -118.415092 325 1546ft 0kts
08-Oct-17 08:49 33.403242 -118.415092 325 1546ft 0kts
08-Oct-17 08:50 33.403242 -118.415092 325 1546ft 0kts
08-Oct-17 08:51 33.403242 -118.415092 325 1546ft 0kts
08-Oct-17 08:52 33.403242 -118.415092 325 1546ft 0kts
08-Oct-17 08:53 33.403242 -118.415092 325 1546ft 0kts
08-Oct-17 08:54 33.403242 -118.415092 325 1546ft 0kts
08-Oct-17 08:55 33.403242 -118.415092 325 1546ft 0kts
08-Oct-17 08:56 33.403242 -118.415092 325 1546ft 0kts
08-Oct-17 08:57 33.403242 -118.415092 325 1546ft 0kts
08-Oct-17 08:58 33.403242 -118.415092 325 1546ft 0kts
08-Oct-17 08:59 33.403242 -118.415092 325 1546ft 0kts
08-Oct-17 09:00 33.403242 -118.415092 325 1546ft 0kts
08-Oct-17 09:01 33.403242 -118.415092 325 1546ft 0kts
08-Oct-17 09:02 33.403242 -118.415092 325 1546ft 0kts
08-Oct-17 09:03 33.403242 -118.415092 325 1546ft 0kts
08-Oct-17 09:04 33.403242 -118.415092 325 1546ft 0kts
08-Oct-17 09:05 33.403242 -118.415092 325 1546ft 0kts
08-Oct-17 09:06 33.403242 -118.415092 325 1546ft 0kts
08-Oct-17 09:07 33.403242 -118.415092 325 1546ft 0kts
08-Oct-17 09:08 33.403242 -118.415092 325 1546ft 0kts
08-Oct-17 09:09 33.403242 -118.415092 325 1546ft 0kts
08-Oct-17 09:10 33.403242 -118.415092 325 1546ft 0kts
08-Oct-17 09:11 33.406932 -118.411794 52 1503ft 24kts
08-Oct-17 09:12 33.407232 -118.411358 346 1499ft 0kts
08-Oct-17 09:13 33.407232 -118.411358 346 1499ft 0kts
08-Oct-17 09:14 33.407232 -118.411358 346 1499ft 0kts
08-Oct-17 09:15 33.407425 -118.411490 307 1499ft 8kts
08-Oct-17 09:16 33.394801 -118.422686 188 1955ft 88kts
08-Oct-17 09:17 33.368655 -118.420217 130 2608ft 100kts
08-Oct-17 09:18 33.365225 -118.387975 87 3308ft 98kts
08-Oct-17 09:19 33.365329 -118.355348 87 4006ft 98kts
08-Oct-17 09:20 33.361565 -118.317189 97 4033ft 125kts
08-Oct-17 09:21 33.356342 -118.279308 96 4540ft 104kts
08-Oct-17 09:22 33.351891 -118.245653 95 5037ft 112kts
08-Oct-17 09:23 33.346611 -118.205375 95 5010ft 127kts
08-Oct-17 09:24 33.341080 -118.163570 95 5007ft 127kts
08-Oct-17 09:25 33.335532 -118.121641 95 5006ft 127kts
08-Oct-17 09:26 33.330021 -118.080085 95 5005ft 127kts
08-Oct-17 09:27 33.324469 -118.038414 95 5005ft 126kts
08-Oct-17 09:28 33.318957 -117.997059 94 5005ft 126kts
08-Oct-17 09:29 33.313460 -117.955936 94 5005ft 125kts
08-Oct-17 09:30 33.307995 -117.915146 94 5004ft 123kts
08-Oct-17 09:31 33.302562 -117.874645 93 5004ft 122kts
08-Oct-17 09:32 33.297209 -117.834824 93 5003ft 120kts
08-Oct-17 09:33 33.291886 -117.795344 93 5003ft 120kts
08-Oct-17 09:34 33.286572 -117.756054 93 5004ft 120kts
08-Oct-17 09:35 33.280772 -117.716739 94 5005ft 120kts
08-Oct-17 09:36 33.274866 -117.677424 94 5005ft 120kts
08-Oct-17 09:37 33.268915 -117.637983 94 5005ft 120kts
08-Oct-17 09:38 33.262969 -117.598667 94 5005ft 120kts
08-Oct-17 09:39 33.257571 -117.559314 92 5006ft 119kts
08-Oct-17 09:40 33.252779 -117.520059 92 5007ft 119kts
08-Oct-17 09:41 33.247980 -117.480707 93 5008ft 119kts
08-Oct-17 09:42 33.243186 -117.441484 93 5009ft 119kts
08-Oct-17 09:43 33.224128 -117.412408 154 5010ft 129kts
08-Oct-17 09:44 33.190381 -117.397336 154 5008ft 129kts
08-Oct-17 09:45 33.156739 -117.382710 155 5006ft 128kts
08-Oct-17 09:46 33.123376 -117.368590 159 5016ft 123kts
08-Oct-17 09:47 33.092451 -117.355559 161 5002ft 115kts
08-Oct-17 09:48 33.062356 -117.342969 161 5003ft 115kts
08-Oct-17 09:49 33.032117 -117.330275 161 5003ft 115kts
08-Oct-17 09:50 33.001909 -117.317604 162 5003ft 115kts
08-Oct-17 09:51 32.971509 -117.304856 162 5003ft 116kts
08-Oct-17 09:52 32.941069 -117.292106 162 5003ft 116kts
08-Oct-17 09:53 32.910555 -117.279329 162 5004ft 116kts
08-Oct-17 09:54 32.880167 -117.266618 162 5007ft 117kts
08-Oct-17 09:55 32.849435 -117.253767 162 5008ft 117kts
08-Oct-17 09:56 32.819087 -117.240196 160 5009ft 117kts
08-Oct-17 09:57 32.805478 -117.206489 103 5011ft 126kts
08-Oct-17 09:58 32.799512 -117.165370 103 5012ft 126kts
08-Oct-17 09:59 32.793431 -117.124079 103 5014ft 126kts
08-Oct-17 10:00 32.787263 -117.083197 103 5017ft 124kts
08-Oct-17 10:01 32.778079 -117.044466 103 5019ft 121kts
08-Oct-17 10:02 32.768391 -117.006000 103 5022ft 122kts
08-Oct-17 10:03 32.758546 -116.966952 103 5026ft 123kts
08-Oct-17 10:04 32.748655 -116.928160 103 5027ft 123kts
08-Oct-17 10:05 32.738310 -116.889181 121 5016ft 127kts
08-Oct-17 10:06 32.705482 -116.888633 189 4339ft 118kts
08-Oct-17 10:07 32.676439 -116.896371 190 4045ft 90kts
08-Oct-17 10:08 32.654334 -116.910691 261 3858ft 106kts
08-Oct-17 10:09 32.665621 -116.938461 311 3858ft 94kts
08-Oct-17 10:10 32.681686 -116.961065 297 3754ft 93kts
08-Oct-17 10:11 32.687940 -116.989610 272 3526ft 97kts
08-Oct-17 10:12 32.691948 -117.023440 282 2699ft 102kts
08-Oct-17 10:13 32.699776 -117.051070 285 2537ft 100kts
08-Oct-17 10:14 32.708248 -117.082908 283 2042ft 89kts
08-Oct-17 10:15 32.715953 -117.112286 280 1438ft 92kts
08-Oct-17 10:16 32.721564 -117.141535 279 743ft 91kts
08-Oct-17 10:17 32.728899 -117.170595 281 241ft 92kts
08-Oct-17 10:18 32.732537 -117.188545 199 15ft 0kts
08-Oct-17 10:19 32.732537 -117.188545 199 15ft 0kts
08-Oct-17 10:20 32.731373 -117.191007 211 14ft 14kts
08-Oct-17 10:21 32.731048 -117.191670 21 14ft 0kts
08-Oct-17 10:22 32.731050 -117.191669 20 14ft 0kts

Navigation Log

Ident Type
1. KAVX Airport
2. SXC Navaid
3. AVOLS Fix
4. PACIF Fix
5. HUBRD Fix
6. OCN Navaid
7. HURSI Fix
8. CARIF Fix
9. MZB Navaid
10. KSAN Airport